Hamnavoe — VSTY7 — position and weather

sailwx.info

Track history (hours):
 
Tides and Currents Weather Stations Pressure Air Temp Water Temp Dewpoint Dewpoint Depression Visibility Wind Speed Wind Dir Waves Ship Positions

Hamnavoe

Operator: NorthLink Orkey & Shetland Ferries Ltd

Last reported at 2018-Nov-10 20:18 UTC. Time now 2018-Nov-13 07:42 UTC.
Position N 58°58' W 003°18'.

Length 112 m; draft 4.2 m.

Type: Ship. MMSI: 235449000.

Date/timePositionNaut miles runAvg speedWind from/ knotsBaromVisibWave heightAir tempDewpointWater temp
2018-Nov-10 20:18N 58°58' W 003°18'512.7
2018-Nov-10 19:56N 58°55' W 003°25'918.2
2018-Nov-10 19:26N 58°47' W 003°28'10 7.5
2018-Nov-10 18:04N 58°37' W 003°33'0 7.0
2018-Nov-10 18:02N 58°37' W 003°32'919.1
2018-Nov-10 17:32N 58°46' W 003°29'1018.3
2018-Nov-10 17:00N 58°56' W 003°25'4 1.1
2018-Nov-10 13:13N 58°58' W 003°18'914.6
2018-Nov-10 12:36N 58°50' W 003°28'119.6
2018-Nov-10 12:31N 58°49' W 003°29'9 3.7
2018-Nov-10 10:06N 58°40' W 003°31'118.6
2018-Nov-10 10:02N 58°41' W 003°31'1419.3
2018-Nov-10 09:20N 58°55' W 003°26'515.7
2018-Nov-10 09:02N 58°57' W 003°19'1 0.2
2018-Nov-10 04:36N 58°58' W 003°18'0 0.0
2018-Nov-10 02:09N 58°58' W 003°18'0 0.0
2018-Nov-10 01:54N 58°58' W 003°18'0 0.0
2018-Nov-09 17:30N 58°58' W 003°18'0 0.0
2018-Nov-09 14:37N 58°58' W 003°18'0 1.3
2018-Nov-09 14:28N 58°58' W 003°18'913.3
2018-Nov-09 13:46N 58°50' W 003°28'9 5.2
2018-Nov-09 12:03N 58°41' W 003°30'118.7
2018-Nov-09 12:02N 58°42' W 003°30'1318.2
2018-Nov-09 11:18N 58°55' W 003°26'517.5
2018-Nov-09 11:02N 58°57' W 003°18'1 0.6
2018-Nov-09 09:58N 58°57' W 003°18'915.1
2018-Nov-09 09:21N 58°50' W 003°29'1419.3
2018-Nov-09 08:39N 58°37' W 003°32'0 0.4
2018-Nov-09 08:01N 58°37' W 003°32'1818.4
2018-Nov-09 07:03N 58°54' W 003°26'515.8
2018-Nov-09 06:46N 58°57' W 003°19'1 0.1
2018-Nov-08 20:25N 58°58' W 003°18'511.3
2018-Nov-08 19:57N 58°55' W 003°26'14 6.6
2018-Nov-08 17:51N 58°41' W 003°31'918.5
2018-Nov-08 17:24N 58°49' W 003°29'816.6
2018-Nov-08 16:54N 58°57' W 003°21'2 0.6
2018-Nov-08 13:39N 58°58' W 003°18'0 0.1
2018-Nov-08 10:02N 58°57' W 003°18'2210.2
2018-Nov-08 07:52N 58°37' W 003°32'617.5
2018-Nov-08 07:30N 58°43' W 003°32'1219.0
2018-Nov-08 06:53N 58°54' W 003°27'514.8
2018-Nov-08 06:32N 58°57' W 003°18'1 0.2
2018-Nov-08 01:51N 58°58' W 003°18'0 0.0
2018-Nov-08 01:15N 58°58' W 003°18'0 0.0
2018-Nov-08 00:15N 58°58' W 003°18'0 0.0
2018-Nov-07 23:33N 58°58' W 003°18'0 0.0
2018-Nov-07 22:51N 58°58' W 003°18'0 0.1
2018-Nov-07 20:17N 58°57' W 003°18'1015.2
2018-Nov-07 19:39N 58°50' W 003°28'919.2
2018-Nov-07 19:11N 58°41' W 003°30'1 0.6
2018-Nov-07 17:47N 58°42' W 003°30'818.4
2018-Nov-07 17:22N 58°49' W 003°29'618.8
2018-Nov-07 17:02N 58°55' W 003°26'5 0.7
2018-Nov-07 10:06N 58°58' W 003°18'1 4.8
2018-Nov-07 09:59N 58°57' W 003°17'915.3
2018-Nov-07 09:24N 58°50' W 003°29'14 8.8
2018-Nov-07 07:52N 58°37' W 003°32'617.9
2018-Nov-07 07:30N 58°43' W 003°30'1319.2
2018-Nov-07 06:51N 58°55' W 003°25'513.9
2018-Nov-07 06:31N 58°57' W 003°17'1 0.1
2018-Nov-06 20:22N 58°58' W 003°18'914.5
2018-Nov-06 19:44N 58°50' W 003°28'9 4.8
2018-Nov-06 17:48N 58°41' W 003°32'718.2
2018-Nov-06 17:24N 58°48' W 003°30'1016.4
2018-Nov-06 16:47N 58°57' W 003°19'1 0.5
2018-Nov-06 14:27N 58°58' W 003°18'1 0.2
2018-Nov-06 09:59N 58°57' W 003°17'1015.1
2018-Nov-06 09:19N 58°49' W 003°29'12 8.0
2018-Nov-06 07:49N 58°37' W 003°32'618.1
2018-Nov-06 07:29N 58°43' W 003°30'1516.2
2018-Nov-06 06:34N 58°57' W 003°18'1 7.3
2018-Nov-06 06:29N 58°57' W 003°18'0 0.0
2018-Nov-05 20:18N 58°58' W 003°18'914.3
2018-Nov-05 19:38N 58°50' W 003°29'1318.6
2018-Nov-05 18:55N 58°37' W 003°32'6 5.3
2018-Nov-05 17:41N 58°43' W 003°30'1219.1
2018-Nov-05 17:05N 58°54' W 003°26'416.4
2018-Nov-05 16:49N 58°57' W 003°19'1 0.2
2018-Nov-05 10:07N 58°58' W 003°18'1 6.7
2018-Nov-05 10:02N 58°57' W 003°17'010.1
2018-Nov-05 10:00N 58°57' W 003°17'913.4
2018-Nov-05 09:21N 58°50' W 003°28'14 9.4
2018-Nov-05 07:53N 58°37' W 003°32'717.4
2018-Nov-05 07:30N 58°43' W 003°30'1417.4
2018-Nov-05 06:41N 58°57' W 003°21'210.0
2018-Nov-05 06:30N 58°57' W 003°18'0 0.0
2018-Nov-04 20:27N 58°58' W 003°18'612.6
2018-Nov-04 20:01N 58°54' W 003°26'518.4
2018-Nov-04 19:45N 58°50' W 003°29'13 8.6
2018-Nov-04 18:12N 58°37' W 003°32'312.5
2018-Nov-04 17:56N 58°39' W 003°30'1418.2
2018-Nov-04 17:08N 58°54' W 003°28'515.1
2018-Nov-04 16:50N 58°57' W 003°21'2 0.1
2018-Nov-03 20:16N 58°58' W 003°18'913.8
2018-Nov-03 19:36N 58°50' W 003°29'14 9.1
2018-Nov-03 18:05N 58°37' W 003°32'0 4.2
2018-Nov-03 18:02N 58°37' W 003°32'315.8
2018-Nov-03 17:51N 58°39' W 003°31'718.3
2018-Nov-03 17:30N 58°46' W 003°29'918.6
2018-Nov-03 17:02N 58°54' W 003°26'118.2
2018-Nov-03 17:00N 58°55' W 003°26'5 1.3
2018-Nov-03 13:13N 58°57' W 003°18'1115.7
2018-Nov-03 12:31N 58°49' W 003°30'7 3.0
2018-Nov-03 10:02N 58°41' W 003°31'119.2
2018-Nov-03 09:58N 58°42' W 003°30'1616.5
2018-Nov-03 09:01N 58°57' W 003°18'019.0
2018-Nov-03 09:00N 58°57' W 003°18'1 0.1
2018-Nov-03 02:01N 58°58' W 003°18'0 0.0
2018-Nov-03 01:52N 58°58' W 003°18'0 0.0
2018-Nov-02 20:25N 58°58' W 003°18'912.5
2018-Nov-02 19:40N 58°50' W 003°29'11 6.0
2018-Nov-02 17:55N 58°40' W 003°31'1817.0
2018-Nov-02 16:49N 58°57' W 003°18'1 0.1
2018-Nov-02 10:02N 58°58' W 003°18'1 9.4
2018-Nov-02 09:58N 58°57' W 003°17'19 8.0
2018-Nov-02 07:39N 58°40' W 003°31'318.7
2018-Nov-02 07:28N 58°43' W 003°30'1516.5
2018-Nov-02 06:32N 58°57' W 003°17'1 9.9
2018-Nov-02 06:29N 58°57' W 003°18'0 0.0
2018-Nov-01 20:19N 58°58' W 003°18'311.1
2018-Nov-01 20:02N 58°56' W 003°23'718.2
2018-Nov-01 19:39N 58°50' W 003°29'13 8.6
2018-Nov-01 18:06N 58°37' W 003°32'615.2
2018-Nov-01 17:41N 58°43' W 003°30'319.2
2018-Nov-01 17:30N 58°46' W 003°29'1216.4
2018-Nov-01 16:46N 58°57' W 003°18'1 0.4
2018-Nov-01 14:27N 58°58' W 003°18'0 0.1
2018-Nov-01 10:02N 58°57' W 003°18'1 8.9
2018-Nov-01 09:58N 58°57' W 003°17'915.6
2018-Nov-01 09:22N 58°50' W 003°29'919.1
2018-Nov-01 08:54N 58°41' W 003°31'4 3.6
2018-Nov-01 07:50N 58°37' W 003°32'618.7
2018-Nov-01 07:30N 58°43' W 003°30'1516.4
2018-Nov-01 06:36N 58°57' W 003°18'1 7.6
2018-Nov-01 06:30N 58°57' W 003°18'0 0.0
2018-Oct-31 20:18N 58°58' W 003°18'  
Track history (hours):
 
Tides and Currents Weather Stations Pressure Air Temp Water Temp Dewpoint Dewpoint Depression Visibility Wind Speed Wind Dir Waves Ship Positions

Hamnavoe

Operator: NorthLink Orkey & Shetland Ferries Ltd

Last reported at 2018-Nov-10 20:18 UTC. Time now 2018-Nov-13 07:42 UTC.
Position N 58°58' W 003°18'.

Length 112 m; draft 4.2 m.

Type: Ship. MMSI: 235449000.

Date/timePositionNaut miles runAvg speedWind from/ knotsBaromVisibWave heightAir tempDewpointWater temp
2018-Nov-10 20:18N 58°58' W 003°18'512.7
2018-Nov-10 19:56N 58°55' W 003°25'918.2
2018-Nov-10 19:26N 58°47' W 003°28'10 7.5
2018-Nov-10 18:04N 58°37' W 003°33'0 7.0
2018-Nov-10 18:02N 58°37' W 003°32'919.1
2018-Nov-10 17:32N 58°46' W 003°29'1018.3
2018-Nov-10 17:00N 58°56' W 003°25'4 1.1
2018-Nov-10 13:13N 58°58' W 003°18'914.6
2018-Nov-10 12:36N 58°50' W 003°28'119.6
2018-Nov-10 12:31N 58°49' W 003°29'9 3.7
2018-Nov-10 10:06N 58°40' W 003°31'118.6
2018-Nov-10 10:02N 58°41' W 003°31'1419.3
2018-Nov-10 09:20N 58°55' W 003°26'515.7
2018-Nov-10 09:02N 58°57' W 003°19'1 0.2
2018-Nov-10 04:36N 58°58' W 003°18'0 0.0
2018-Nov-10 02:09N 58°58' W 003°18'0 0.0
2018-Nov-10 01:54N 58°58' W 003°18'0 0.0
2018-Nov-09 17:30N 58°58' W 003°18'0 0.0
2018-Nov-09 14:37N 58°58' W 003°18'0 1.3
2018-Nov-09 14:28N 58°58' W 003°18'913.3
2018-Nov-09 13:46N 58°50' W 003°28'9 5.2
2018-Nov-09 12:03N 58°41' W 003°30'118.7
2018-Nov-09 12:02N 58°42' W 003°30'1318.2
2018-Nov-09 11:18N 58°55' W 003°26'517.5
2018-Nov-09 11:02N 58°57' W 003°18'1 0.6
2018-Nov-09 09:58N 58°57' W 003°18'915.1
2018-Nov-09 09:21N 58°50' W 003°29'1419.3
2018-Nov-09 08:39N 58°37' W 003°32'0 0.4
2018-Nov-09 08:01N 58°37' W 003°32'1818.4
2018-Nov-09 07:03N 58°54' W 003°26'515.8
2018-Nov-09 06:46N 58°57' W 003°19'1 0.1
2018-Nov-08 20:25N 58°58' W 003°18'511.3
2018-Nov-08 19:57N 58°55' W 003°26'14 6.6
2018-Nov-08 17:51N 58°41' W 003°31'918.5
2018-Nov-08 17:24N 58°49' W 003°29'816.6
2018-Nov-08 16:54N 58°57' W 003°21'2 0.6
2018-Nov-08 13:39N 58°58' W 003°18'0 0.1
2018-Nov-08 10:02N 58°57' W 003°18'2210.2
2018-Nov-08 07:52N 58°37' W 003°32'617.5
2018-Nov-08 07:30N 58°43' W 003°32'1219.0
2018-Nov-08 06:53N 58°54' W 003°27'514.8
2018-Nov-08 06:32N 58°57' W 003°18'1 0.2
2018-Nov-08 01:51N 58°58' W 003°18'0 0.0
2018-Nov-08 01:15N 58°58' W 003°18'0 0.0
2018-Nov-08 00:15N 58°58' W 003°18'0 0.0
2018-Nov-07 23:33N 58°58' W 003°18'0 0.0
2018-Nov-07 22:51N 58°58' W 003°18'0 0.1
2018-Nov-07 20:17N 58°57' W 003°18'1015.2
2018-Nov-07 19:39N 58°50' W 003°28'919.2
2018-Nov-07 19:11N 58°41' W 003°30'1 0.6
2018-Nov-07 17:47N 58°42' W 003°30'818.4
2018-Nov-07 17:22N 58°49' W 003°29'618.8
2018-Nov-07 17:02N 58°55' W 003°26'5 0.7
2018-Nov-07 10:06N 58°58' W 003°18'1 4.8
2018-Nov-07 09:59N 58°57' W 003°17'915.3
2018-Nov-07 09:24N 58°50' W 003°29'14 8.8
2018-Nov-07 07:52N 58°37' W 003°32'617.9
2018-Nov-07 07:30N 58°43' W 003°30'1319.2
2018-Nov-07 06:51N 58°55' W 003°25'513.9
2018-Nov-07 06:31N 58°57' W 003°17'1 0.1
2018-Nov-06 20:22N 58°58' W 003°18'914.5
2018-Nov-06 19:44N 58°50' W 003°28'9 4.8
2018-Nov-06 17:48N 58°41' W 003°32'718.2
2018-Nov-06 17:24N 58°48' W 003°30'1016.4
2018-Nov-06 16:47N 58°57' W 003°19'1 0.5
2018-Nov-06 14:27N 58°58' W 003°18'1 0.2
2018-Nov-06 09:59N 58°57' W 003°17'1015.1
2018-Nov-06 09:19N 58°49' W 003°29'12 8.0
2018-Nov-06 07:49N 58°37' W 003°32'618.1
2018-Nov-06 07:29N 58°43' W 003°30'1516.2
2018-Nov-06 06:34N 58°57' W 003°18'1 7.3
2018-Nov-06 06:29N 58°57' W 003°18'0 0.0
2018-Nov-05 20:18N 58°58' W 003°18'914.3
2018-Nov-05 19:38N 58°50' W 003°29'1318.6
2018-Nov-05 18:55N 58°37' W 003°32'6 5.3
2018-Nov-05 17:41N 58°43' W 003°30'1219.1
2018-Nov-05 17:05N 58°54' W 003°26'416.4
2018-Nov-05 16:49N 58°57' W 003°19'1 0.2
2018-Nov-05 10:07N 58°58' W 003°18'1 6.7
2018-Nov-05 10:02N 58°57' W 003°17'010.1
2018-Nov-05 10:00N 58°57' W 003°17'913.4
2018-Nov-05 09:21N 58°50' W 003°28'14 9.4
2018-Nov-05 07:53N 58°37' W 003°32'717.4
2018-Nov-05 07:30N 58°43' W 003°30'1417.4
2018-Nov-05 06:41N 58°57' W 003°21'210.0
2018-Nov-05 06:30N 58°57' W 003°18'0 0.0
2018-Nov-04 20:27N 58°58' W 003°18'612.6
2018-Nov-04 20:01N 58°54' W 003°26'518.4
2018-Nov-04 19:45N 58°50' W 003°29'13 8.6
2018-Nov-04 18:12N 58°37' W 003°32'312.5
2018-Nov-04 17:56N 58°39' W 003°30'1418.2
2018-Nov-04 17:08N 58°54' W 003°28'515.1
2018-Nov-04 16:50N 58°57' W 003°21'2 0.1
2018-Nov-03 20:16N 58°58' W 003°18'913.8
2018-Nov-03 19:36N 58°50' W 003°29'14 9.1
2018-Nov-03 18:05N 58°37' W 003°32'0 4.2
2018-Nov-03 18:02N 58°37' W 003°32'315.8
2018-Nov-03 17:51N 58°39' W 003°31'718.3
2018-Nov-03 17:30N 58°46' W 003°29'918.6
2018-Nov-03 17:02N 58°54' W 003°26'118.2
2018-Nov-03 17:00N 58°55' W 003°26'5 1.3
2018-Nov-03 13:13N 58°57' W 003°18'1115.7
2018-Nov-03 12:31N 58°49' W 003°30'7 3.0
2018-Nov-03 10:02N 58°41' W 003°31'119.2
2018-Nov-03 09:58N 58°42' W 003°30'1616.5
2018-Nov-03 09:01N 58°57' W 003°18'019.0
2018-Nov-03 09:00N 58°57' W 003°18'1 0.1
2018-Nov-03 02:01N 58°58' W 003°18'0 0.0
2018-Nov-03 01:52N 58°58' W 003°18'0 0.0
2018-Nov-02 20:25N 58°58' W 003°18'912.5
2018-Nov-02 19:40N 58°50' W 003°29'11 6.0
2018-Nov-02 17:55N 58°40' W 003°31'1817.0
2018-Nov-02 16:49N 58°57' W 003°18'1 0.1
2018-Nov-02 10:02N 58°58' W 003°18'1 9.4
2018-Nov-02 09:58N 58°57' W 003°17'19 8.0
2018-Nov-02 07:39N 58°40' W 003°31'318.7
2018-Nov-02 07:28N 58°43' W 003°30'1516.5
2018-Nov-02 06:32N 58°57' W 003°17'1 9.9
2018-Nov-02 06:29N 58°57' W 003°18'0 0.0
2018-Nov-01 20:19N 58°58' W 003°18'311.1
2018-Nov-01 20:02N 58°56' W 003°23'718.2
2018-Nov-01 19:39N 58°50' W 003°29'13 8.6
2018-Nov-01 18:06N 58°37' W 003°32'615.2
2018-Nov-01 17:41N 58°43' W 003°30'319.2
2018-Nov-01 17:30N 58°46' W 003°29'1216.4
2018-Nov-01 16:46N 58°57' W 003°18'1 0.4
2018-Nov-01 14:27N 58°58' W 003°18'0 0.1
2018-Nov-01 10:02N 58°57' W 003°18'1 8.9
2018-Nov-01 09:58N 58°57' W 003°17'915.6
2018-Nov-01 09:22N 58°50' W 003°29'919.1
2018-Nov-01 08:54N 58°41' W 003°31'4 3.6
2018-Nov-01 07:50N 58°37' W 003°32'618.7
2018-Nov-01 07:30N 58°43' W 003°30'1516.4
2018-Nov-01 06:36N 58°57' W 003°18'1 7.6
2018-Nov-01 06:30N 58°57' W 003°18'0 0.0
2018-Oct-31 20:18N 58°58' W 003°18'  

Dump ship's entire track history